sensor_id;sensor_type;location;lat;lon;timestamp;temperature;humidity
23869;DHT22;12115;47.128;15.422;2023-06-14T00:00:55;15.80;99.90
23869;DHT22;12115;47.128;15.422;2023-06-14T00:03:23;15.80;99.90
23869;DHT22;12115;47.128;15.422;2023-06-14T00:05:52;15.80;99.90
23869;DHT22;12115;47.128;15.422;2023-06-14T00:08:23;15.70;99.90
23869;DHT22;12115;47.128;15.422;2023-06-14T00:11:08;15.70;99.90
23869;DHT22;12115;47.128;15.422;2023-06-14T00:13:36;15.70;99.90
23869;DHT22;12115;47.128;15.422;2023-06-14T00:16:04;15.70;99.90
23869;DHT22;12115;47.128;15.422;2023-06-14T00:18:31;15.50;99.90
23869;DHT22;12115;47.128;15.422;2023-06-14T00:21:00;15.50;99.90
23869;DHT22;12115;47.128;15.422;2023-06-14T00:23:32;15.50;99.90
23869;DHT22;12115;47.128;15.422;2023-06-14T00:25:59;15.60;99.90
23869;DHT22;12115;47.128;15.422;2023-06-14T00:28:27;15.50;99.90
23869;DHT22;12115;47.128;15.422;2023-06-14T00:30:55;15.50;99.90
23869;DHT22;12115;47.128;15.422;2023-06-14T00:33:22;15.50;99.90
23869;DHT22;12115;47.128;15.422;2023-06-14T00:35:59;15.50;99.90
23869;DHT22;12115;47.128;15.422;2023-06-14T00:38:28;15.50;99.90
23869;DHT22;12115;47.128;15.422;2023-06-14T00:40:57;15.60;99.90
23869;DHT22;12115;47.128;15.422;2023-06-14T00:43:27;15.50;99.90
23869;DHT22;12115;47.128;15.422;2023-06-14T00:45:54;15.50;99.90
23869;DHT22;12115;47.128;15.422;2023-06-14T00:48:22;15.50;99.90
23869;DHT22;12115;47.128;15.422;2023-06-14T00:50:51;15.50;99.90
23869;DHT22;12115;47.128;15.422;2023-06-14T00:53:20;15.50;99.90
23869;DHT22;12115;47.128;15.422;2023-06-14T00:55:51;15.40;99.90
23869;DHT22;12115;47.128;15.422;2023-06-14T00:58:21;15.50;99.90
23869;DHT22;12115;47.128;15.422;2023-06-14T01:01:05;15.50;99.90
23869;DHT22;12115;47.128;15.422;2023-06-14T01:03:34;15.40;99.90
23869;DHT22;12115;47.128;15.422;2023-06-14T01:06:17;15.40;99.90
23869;DHT22;12115;47.128;15.422;2023-06-14T01:34:12;15.30;99.90
23869;DHT22;12115;47.128;15.422;2023-06-14T01:37:48;15.30;99.90
23869;DHT22;12115;47.128;15.422;2023-06-14T01:49:51;15.10;99.90
23869;DHT22;12115;47.128;15.422;2023-06-14T01:57:21;15.10;99.90
23869;DHT22;12115;47.128;15.422;2023-06-14T01:59:58;15.00;99.90
23869;DHT22;12115;47.128;15.422;2023-06-14T02:07:31;14.90;99.90
23869;DHT22;12115;47.128;15.422;2023-06-14T02:14:28;14.80;99.90
23869;DHT22;12115;47.128;15.422;2023-06-14T02:17:06;14.80;99.90
23869;DHT22;12115;47.128;15.422;2023-06-14T02:46:46;14.60;99.90
23869;DHT22;12115;47.128;15.422;2023-06-14T03:02:37;14.50;99.90
23869;DHT22;12115;47.128;15.422;2023-06-14T03:05:08;14.50;99.90
23869;DHT22;12115;47.128;15.422;2023-06-14T03:07:37;14.50;99.90
23869;DHT22;12115;47.128;15.422;2023-06-14T03:10:22;14.50;99.90
23869;DHT22;12115;47.128;15.422;2023-06-14T03:12:50;14.40;99.90
23869;DHT22;12115;47.128;15.422;2023-06-14T03:15:22;14.40;99.90
23869;DHT22;12115;47.128;15.422;2023-06-14T03:17:54;14.40;99.90
23869;DHT22;12115;47.128;15.422;2023-06-14T03:20:22;14.40;99.90
23869;DHT22;12115;47.128;15.422;2023-06-14T03:22:53;14.40;99.90
23869;DHT22;12115;47.128;15.422;2023-06-14T03:25:21;14.40;99.90
23869;DHT22;12115;47.128;15.422;2023-06-14T03:27:50;14.30;99.90
23869;DHT22;12115;47.128;15.422;2023-06-14T03:30:19;14.20;99.90
23869;DHT22;12115;47.128;15.422;2023-06-14T03:32:49;14.20;99.90
23869;DHT22;12115;47.128;15.422;2023-06-14T03:35:19;14.10;99.90
23869;DHT22;12115;47.128;15.422;2023-06-14T03:37:48;14.20;99.90
23869;DHT22;12115;47.128;15.422;2023-06-14T03:40:21;14.30;99.90
23869;DHT22;12115;47.128;15.422;2023-06-14T03:42:56;14.20;99.90
23869;DHT22;12115;47.128;15.422;2023-06-14T03:45:25;14.30;99.90
23869;DHT22;12115;47.128;15.422;2023-06-14T03:48:04;14.30;99.90
23869;DHT22;12115;47.128;15.422;2023-06-14T03:50:34;14.30;99.90
23869;DHT22;12115;47.128;15.422;2023-06-14T03:53:06;14.30;99.90
23869;DHT22;12115;47.128;15.422;2023-06-14T03:55:36;14.30;99.90
23869;DHT22;12115;47.128;15.422;2023-06-14T03:58:32;14.30;99.90
23869;DHT22;12115;47.128;15.422;2023-06-14T04:01:00;14.30;99.90
23869;DHT22;12115;47.128;15.422;2023-06-14T04:03:30;14.30;99.90
23869;DHT22;12115;47.128;15.422;2023-06-14T04:06:01;14.30;99.90
23869;DHT22;12115;47.128;15.422;2023-06-14T04:08:32;14.30;99.90
23869;DHT22;12115;47.128;15.422;2023-06-14T04:11:01;14.30;99.90
23869;DHT22;12115;47.128;15.422;2023-06-14T04:13:29;14.30;99.90
23869;DHT22;12115;47.128;15.422;2023-06-14T04:16:22;14.30;99.90
23869;DHT22;12115;47.128;15.422;2023-06-14T04:18:56;14.40;99.90
23869;DHT22;12115;47.128;15.422;2023-06-14T04:21:27;14.30;99.90
23869;DHT22;12115;47.128;15.422;2023-06-14T04:23:58;14.30;99.90
23869;DHT22;12115;47.128;15.422;2023-06-14T04:26:32;14.40;99.90
23869;DHT22;12115;47.128;15.422;2023-06-14T04:29:01;14.30;99.90
23869;DHT22;12115;47.128;15.422;2023-06-14T04:31:46;14.30;99.90
23869;DHT22;12115;47.128;15.422;2023-06-14T04:34:16;14.30;99.90
23869;DHT22;12115;47.128;15.422;2023-06-14T04:36:56;14.40;99.90
23869;DHT22;12115;47.128;15.422;2023-06-14T04:39:40;14.40;99.90
23869;DHT22;12115;47.128;15.422;2023-06-14T04:42:11;14.30;99.90
23869;DHT22;12115;47.128;15.422;2023-06-14T04:44:46;14.30;99.90
23869;DHT22;12115;47.128;15.422;2023-06-14T04:47:17;14.40;99.90
23869;DHT22;12115;47.128;15.422;2023-06-14T04:49:45;14.30;99.90
23869;DHT22;12115;47.128;15.422;2023-06-14T04:52:13;14.30;99.90
23869;DHT22;12115;47.128;15.422;2023-06-14T04:54:46;14.30;99.90
23869;DHT22;12115;47.128;15.422;2023-06-14T04:57:19;14.40;99.90
23869;DHT22;12115;47.128;15.422;2023-06-14T04:59:50;14.50;99.90
23869;DHT22;12115;47.128;15.422;2023-06-14T05:02:24;14.50;99.90
23869;DHT22;12115;47.128;15.422;2023-06-14T05:04:54;14.50;99.90
23869;DHT22;12115;47.128;15.422;2023-06-14T05:07:24;14.50;99.90
23869;DHT22;12115;47.128;15.422;2023-06-14T05:09:56;14.50;99.90
23869;DHT22;12115;47.128;15.422;2023-06-14T05:12:23;14.50;99.90
23869;DHT22;12115;47.128;15.422;2023-06-14T05:17:36;14.50;99.90
23869;DHT22;12115;47.128;15.422;2023-06-14T05:20:06;14.50;99.90
23869;DHT22;12115;47.128;15.422;2023-06-14T05:22:37;14.50;99.90
23869;DHT22;12115;47.128;15.422;2023-06-14T05:25:08;14.60;99.90
23869;DHT22;12115;47.128;15.422;2023-06-14T05:28:00;14.60;99.90
23869;DHT22;12115;47.128;15.422;2023-06-14T05:30:27;14.60;99.90
23869;DHT22;12115;47.128;15.422;2023-06-14T05:32:58;14.60;99.90
23869;DHT22;12115;47.128;15.422;2023-06-14T05:35:25;14.70;99.90
23869;DHT22;12115;47.128;15.422;2023-06-14T05:37:53;14.70;99.90
23869;DHT22;12115;47.128;15.422;2023-06-14T05:40:21;14.70;99.90
23869;DHT22;12115;47.128;15.422;2023-06-14T05:42:48;14.70;99.90
23869;DHT22;12115;47.128;15.422;2023-06-14T05:45:17;14.70;99.90
23869;DHT22;12115;47.128;15.422;2023-06-14T05:47:48;14.70;99.90
23869;DHT22;12115;47.128;15.422;2023-06-14T05:50:15;14.70;99.90
23869;DHT22;12115;47.128;15.422;2023-06-14T05:52:43;14.70;99.90
23869;DHT22;12115;47.128;15.422;2023-06-14T05:55:10;14.80;99.90
23869;DHT22;12115;47.128;15.422;2023-06-14T05:57:40;14.70;99.90
23869;DHT22;12115;47.128;15.422;2023-06-14T06:00:09;14.60;99.90
23869;DHT22;12115;47.128;15.422;2023-06-14T06:02:43;14.70;99.90
23869;DHT22;12115;47.128;15.422;2023-06-14T06:05:12;14.60;99.90
23869;DHT22;12115;47.128;15.422;2023-06-14T06:07:40;14.70;99.90
23869;DHT22;12115;47.128;15.422;2023-06-14T06:10:09;14.70;99.90
23869;DHT22;12115;47.128;15.422;2023-06-14T06:12:42;14.80;99.90
23869;DHT22;12115;47.128;15.422;2023-06-14T06:15:18;14.80;99.90
23869;DHT22;12115;47.128;15.422;2023-06-14T06:17:47;14.80;99.90
23869;DHT22;12115;47.128;15.422;2023-06-14T06:20:25;14.80;99.90
23869;DHT22;12115;47.128;15.422;2023-06-14T06:23:06;14.70;99.90
23869;DHT22;12115;47.128;15.422;2023-06-14T06:25:34;14.70;99.90
23869;DHT22;12115;47.128;15.422;2023-06-14T06:28:02;14.60;99.90
23869;DHT22;12115;47.128;15.422;2023-06-14T06:30:30;14.60;99.90
23869;DHT22;12115;47.128;15.422;2023-06-14T06:33:03;14.70;99.90
23869;DHT22;12115;47.128;15.422;2023-06-14T06:35:31;14.70;99.90
23869;DHT22;12115;47.128;15.422;2023-06-14T06:38:01;14.80;99.90
23869;DHT22;12115;47.128;15.422;2023-06-14T06:40:32;14.80;99.90
23869;DHT22;12115;47.128;15.422;2023-06-14T06:42:59;14.80;99.90
23869;DHT22;12115;47.128;15.422;2023-06-14T06:45:27;14.80;99.90
23869;DHT22;12115;47.128;15.422;2023-06-14T06:47:54;14.80;99.90
23869;DHT22;12115;47.128;15.422;2023-06-14T06:50:23;14.70;99.90
23869;DHT22;12115;47.128;15.422;2023-06-14T06:53:28;14.80;99.90
23869;DHT22;12115;47.128;15.422;2023-06-14T06:56:10;14.80;99.90
23869;DHT22;12115;47.128;15.422;2023-06-14T06:58:39;14.90;99.90
23869;DHT22;12115;47.128;15.422;2023-06-14T07:01:13;14.80;99.90
23869;DHT22;12115;47.128;15.422;2023-06-14T07:03:45;14.80;99.90
23869;DHT22;12115;47.128;15.422;2023-06-14T07:06:18;14.80;99.90
23869;DHT22;12115;47.128;15.422;2023-06-14T07:08:46;14.80;99.90
23869;DHT22;12115;47.128;15.422;2023-06-14T07:11:16;14.80;99.90
23869;DHT22;12115;47.128;15.422;2023-06-14T07:13:45;14.70;99.90
23869;DHT22;12115;47.128;15.422;2023-06-14T07:16:25;14.70;99.90
23869;DHT22;12115;47.128;15.422;2023-06-14T07:19:03;14.60;99.90
23869;DHT22;12115;47.128;15.422;2023-06-14T07:22:12;14.70;99.90
23869;DHT22;12115;47.128;15.422;2023-06-14T07:24:53;14.70;99.90
23869;DHT22;12115;47.128;15.422;2023-06-14T07:27:24;14.70;99.90
23869;DHT22;12115;47.128;15.422;2023-06-14T07:29:52;14.70;99.90
23869;DHT22;12115;47.128;15.422;2023-06-14T07:32:26;14.70;99.90
23869;DHT22;12115;47.128;15.422;2023-06-14T07:34:56;14.70;99.90
23869;DHT22;12115;47.128;15.422;2023-06-14T07:37:26;14.70;99.90
23869;DHT22;12115;47.128;15.422;2023-06-14T07:39:54;14.70;99.90
23869;DHT22;12115;47.128;15.422;2023-06-14T07:42:34;14.60;99.90
23869;DHT22;12115;47.128;15.422;2023-06-14T07:45:05;14.60;99.90
23869;DHT22;12115;47.128;15.422;2023-06-14T07:47:33;14.70;99.90
23869;DHT22;12115;47.128;15.422;2023-06-14T07:50:01;14.70;99.90
23869;DHT22;12115;47.128;15.422;2023-06-14T07:52:29;14.70;99.90
23869;DHT22;12115;47.128;15.422;2023-06-14T07:54:58;14.70;99.90
23869;DHT22;12115;47.128;15.422;2023-06-14T07:57:25;14.70;99.90
23869;DHT22;12115;47.128;15.422;2023-06-14T07:59:53;14.70;99.90
23869;DHT22;12115;47.128;15.422;2023-06-14T08:02:24;14.70;99.90
23869;DHT22;12115;47.128;15.422;2023-06-14T08:04:54;14.70;99.90
23869;DHT22;12115;47.128;15.422;2023-06-14T08:07:23;14.80;99.90
23869;DHT22;12115;47.128;15.422;2023-06-14T08:13:35;14.80;99.90
23869;DHT22;12115;47.128;15.422;2023-06-14T08:16:06;14.80;99.90
23869;DHT22;12115;47.128;15.422;2023-06-14T08:18:33;14.80;99.90
23869;DHT22;12115;47.128;15.422;2023-06-14T08:21:00;14.70;99.90
23869;DHT22;12115;47.128;15.422;2023-06-14T08:23:28;14.70;99.90
23869;DHT22;12115;47.128;15.422;2023-06-14T08:25:55;14.80;99.90
23869;DHT22;12115;47.128;15.422;2023-06-14T08:28:24;14.70;99.90
23869;DHT22;12115;47.128;15.422;2023-06-14T08:30:51;14.70;99.90
23869;DHT22;12115;47.128;15.422;2023-06-14T08:33:18;14.70;99.90
23869;DHT22;12115;47.128;15.422;2023-06-14T08:35:46;14.70;99.90
23869;DHT22;12115;47.128;15.422;2023-06-14T08:38:13;14.70;99.90
23869;DHT22;12115;47.128;15.422;2023-06-14T08:40:41;14.70;99.90
23869;DHT22;12115;47.128;15.422;2023-06-14T08:43:09;14.70;99.90
23869;DHT22;12115;47.128;15.422;2023-06-14T08:45:36;14.60;99.90
23869;DHT22;12115;47.128;15.422;2023-06-14T08:48:06;14.50;99.90
23869;DHT22;12115;47.128;15.422;2023-06-14T08:50:36;14.50;99.90
23869;DHT22;12115;47.128;15.422;2023-06-14T08:53:08;14.50;99.90
23869;DHT22;12115;47.128;15.422;2023-06-14T08:55:38;14.60;99.90
23869;DHT22;12115;47.128;15.422;2023-06-14T08:58:09;14.70;99.90
23869;DHT22;12115;47.128;15.422;2023-06-14T09:00:42;14.50;99.90
23869;DHT22;12115;47.128;15.422;2023-06-14T09:03:10;14.40;99.90
23869;DHT22;12115;47.128;15.422;2023-06-14T09:05:41;14.50;99.90
23869;DHT22;12115;47.128;15.422;2023-06-14T09:08:08;14.50;99.90
23869;DHT22;12115;47.128;15.422;2023-06-14T09:10:37;14.50;99.90
23869;DHT22;12115;47.128;15.422;2023-06-14T09:13:05;14.40;99.90
23869;DHT22;12115;47.128;15.422;2023-06-14T09:15:35;14.30;99.90
23869;DHT22;12115;47.128;15.422;2023-06-14T09:18:03;14.30;99.90
23869;DHT22;12115;47.128;15.422;2023-06-14T09:20:31;14.40;99.90
23869;DHT22;12115;47.128;15.422;2023-06-14T09:23:00;14.40;99.90
23869;DHT22;12115;47.128;15.422;2023-06-14T09:25:27;14.50;99.90
23869;DHT22;12115;47.128;15.422;2023-06-14T09:27:58;14.40;99.90
23869;DHT22;12115;47.128;15.422;2023-06-14T09:30:26;14.30;99.90
23869;DHT22;12115;47.128;15.422;2023-06-14T09:32:54;14.30;99.90
23869;DHT22;12115;47.128;15.422;2023-06-14T09:35:26;14.30;99.90
23869;DHT22;12115;47.128;15.422;2023-06-14T09:37:56;14.30;99.90
23869;DHT22;12115;47.128;15.422;2023-06-14T09:40:24;14.40;99.90
23869;DHT22;12115;47.128;15.422;2023-06-14T09:42:52;14.40;99.90
23869;DHT22;12115;47.128;15.422;2023-06-14T09:45:20;14.40;99.90
23869;DHT22;12115;47.128;15.422;2023-06-14T09:47:49;14.50;99.90
23869;DHT22;12115;47.128;15.422;2023-06-14T09:50:32;14.40;99.90
23869;DHT22;12115;47.128;15.422;2023-06-14T09:53:06;14.40;99.90
23869;DHT22;12115;47.128;15.422;2023-06-14T09:55:38;14.50;99.90
23869;DHT22;12115;47.128;15.422;2023-06-14T09:58:09;14.60;99.90
23869;DHT22;12115;47.128;15.422;2023-06-14T10:00:37;14.60;99.90
23869;DHT22;12115;47.128;15.422;2023-06-14T10:03:13;14.50;99.90
23869;DHT22;12115;47.128;15.422;2023-06-14T10:05:46;14.60;99.90
23869;DHT22;12115;47.128;15.422;2023-06-14T10:08:16;14.70;99.90
23869;DHT22;12115;47.128;15.422;2023-06-14T10:10:45;14.80;99.90
23869;DHT22;12115;47.128;15.422;2023-06-14T10:13:13;14.90;99.90
23869;DHT22;12115;47.128;15.422;2023-06-14T10:16:10;15.00;99.90
23869;DHT22;12115;47.128;15.422;2023-06-14T10:24:12;15.30;99.90
23869;DHT22;12115;47.128;15.422;2023-06-14T10:26:59;15.30;99.90
23869;DHT22;12115;47.128;15.422;2023-06-14T10:29:28;15.40;99.90
23869;DHT22;12115;47.128;15.422;2023-06-14T10:32:00;15.50;99.90
23869;DHT22;12115;47.128;15.422;2023-06-14T10:34:31;15.50;99.90
23869;DHT22;12115;47.128;15.422;2023-06-14T10:37:06;15.60;99.90
23869;DHT22;12115;47.128;15.422;2023-06-14T10:39:45;15.60;99.90
23869;DHT22;12115;47.128;15.422;2023-06-14T10:42:15;15.80;99.90
23869;DHT22;12115;47.128;15.422;2023-06-14T10:44:46;15.90;99.90
23869;DHT22;12115;47.128;15.422;2023-06-14T10:47:32;16.00;99.90
23869;DHT22;12115;47.128;15.422;2023-06-14T10:52:34;16.20;99.90
23869;DHT22;12115;47.128;15.422;2023-06-14T10:57:34;16.20;99.90
23869;DHT22;12115;47.128;15.422;2023-06-14T11:00:06;16.40;99.90
23869;DHT22;12115;47.128;15.422;2023-06-14T11:06:01;16.20;99.90
23869;DHT22;12115;47.128;15.422;2023-06-14T11:08:56;16.30;99.90
23869;DHT22;12115;47.128;15.422;2023-06-14T11:11:32;16.40;99.90
23869;DHT22;12115;47.128;15.422;2023-06-14T11:14:02;16.40;99.90
23869;DHT22;12115;47.128;15.422;2023-06-14T11:16:30;16.50;99.90
23869;DHT22;12115;47.128;15.422;2023-06-14T11:19:01;16.60;99.90
23869;DHT22;12115;47.128;15.422;2023-06-14T11:21:33;16.60;99.90
23869;DHT22;12115;47.128;15.422;2023-06-14T11:24:00;16.40;99.90
23869;DHT22;12115;47.128;15.422;2023-06-14T11:26:29;16.30;99.90
23869;DHT22;12115;47.128;15.422;2023-06-14T11:28:58;16.30;99.90
23869;DHT22;12115;47.128;15.422;2023-06-14T11:31:27;16.40;99.90
23869;DHT22;12115;47.128;15.422;2023-06-14T11:33:57;16.50;99.90
23869;DHT22;12115;47.128;15.422;2023-06-14T11:36:29;16.60;99.90
23869;DHT22;12115;47.128;15.422;2023-06-14T11:38:59;16.70;99.90
23869;DHT22;12115;47.128;15.422;2023-06-14T11:41:41;16.70;99.90
23869;DHT22;12115;47.128;15.422;2023-06-14T11:44:10;16.70;99.90
23869;DHT22;12115;47.128;15.422;2023-06-14T11:46:38;16.80;99.90
23869;DHT22;12115;47.128;15.422;2023-06-14T11:49:07;16.80;99.90
23869;DHT22;12115;47.128;15.422;2023-06-14T11:51:36;16.80;99.90
23869;DHT22;12115;47.128;15.422;2023-06-14T11:54:05;16.80;99.90
23869;DHT22;12115;47.128;15.422;2023-06-14T11:56:33;16.90;99.90
23869;DHT22;12115;47.128;15.422;2023-06-14T11:59:03;16.90;99.90
23869;DHT22;12115;47.128;15.422;2023-06-14T12:01:36;16.70;99.90
23869;DHT22;12115;47.128;15.422;2023-06-14T12:04:05;16.70;99.90
23869;DHT22;12115;47.128;15.422;2023-06-14T12:06:34;16.80;99.90
23869;DHT22;12115;47.128;15.422;2023-06-14T12:09:08;16.90;99.90
23869;DHT22;12115;47.128;15.422;2023-06-14T12:11:44;16.90;99.90
23869;DHT22;12115;47.128;15.422;2023-06-14T12:14:11;16.90;99.90
23869;DHT22;12115;47.128;15.422;2023-06-14T12:16:40;16.90;99.90
23869;DHT22;12115;47.128;15.422;2023-06-14T12:19:13;16.90;99.90
23869;DHT22;12115;47.128;15.422;2023-06-14T12:21:42;17.00;99.90
23869;DHT22;12115;47.128;15.422;2023-06-14T12:24:12;17.10;99.90
23869;DHT22;12115;47.128;15.422;2023-06-14T12:26:41;17.10;99.90
23869;DHT22;12115;47.128;15.422;2023-06-14T12:29:12;17.10;99.90
23869;DHT22;12115;47.128;15.422;2023-06-14T12:31:40;17.00;99.90
23869;DHT22;12115;47.128;15.422;2023-06-14T12:34:09;17.00;99.90
23869;DHT22;12115;47.128;15.422;2023-06-14T12:36:37;17.10;99.90
23869;DHT22;12115;47.128;15.422;2023-06-14T12:39:09;17.20;99.90
23869;DHT22;12115;47.128;15.422;2023-06-14T12:41:38;17.20;99.90
23869;DHT22;12115;47.128;15.422;2023-06-14T12:44:15;17.20;99.90
23869;DHT22;12115;47.128;15.422;2023-06-14T12:46:43;17.30;99.90
23869;DHT22;12115;47.128;15.422;2023-06-14T12:49:11;17.30;99.90
23869;DHT22;12115;47.128;15.422;2023-06-14T12:51:40;17.30;99.90
23869;DHT22;12115;47.128;15.422;2023-06-14T12:54:07;17.40;99.90
23869;DHT22;12115;47.128;15.422;2023-06-14T12:56:35;17.50;99.90
23869;DHT22;12115;47.128;15.422;2023-06-14T12:59:03;17.50;99.90
23869;DHT22;12115;47.128;15.422;2023-06-14T13:01:31;17.60;99.90
23869;DHT22;12115;47.128;15.422;2023-06-14T13:03:58;17.60;99.90
23869;DHT22;12115;47.128;15.422;2023-06-14T13:06:25;17.70;99.90
23869;DHT22;12115;47.128;15.422;2023-06-14T13:08:53;17.70;99.90
23869;DHT22;12115;47.128;15.422;2023-06-14T13:11:22;17.70;99.90
23869;DHT22;12115;47.128;15.422;2023-06-14T13:13:50;17.70;99.90
23869;DHT22;12115;47.128;15.422;2023-06-14T13:16:18;17.80;99.90
23869;DHT22;12115;47.128;15.422;2023-06-14T13:18:45;17.90;99.90
23869;DHT22;12115;47.128;15.422;2023-06-14T13:21:12;18.00;99.90
23869;DHT22;12115;47.128;15.422;2023-06-14T13:23:40;18.10;99.90
23869;DHT22;12115;47.128;15.422;2023-06-14T13:26:09;18.20;99.90
23869;DHT22;12115;47.128;15.422;2023-06-14T13:28:36;18.20;99.90
23869;DHT22;12115;47.128;15.422;2023-06-14T13:31:04;18.10;99.90
23869;DHT22;12115;47.128;15.422;2023-06-14T13:33:32;18.10;99.90
23869;DHT22;12115;47.128;15.422;2023-06-14T13:36:02;18.10;99.90
23869;DHT22;12115;47.128;15.422;2023-06-14T13:38:29;18.20;99.90
23869;DHT22;12115;47.128;15.422;2023-06-14T13:40:56;18.20;99.90
23869;DHT22;12115;47.128;15.422;2023-06-14T13:43:24;18.10;99.90
23869;DHT22;12115;47.128;15.422;2023-06-14T13:45:54;18.20;99.90
23869;DHT22;12115;47.128;15.422;2023-06-14T13:48:21;18.20;99.90
23869;DHT22;12115;47.128;15.422;2023-06-14T13:50:49;18.30;99.90
23869;DHT22;12115;47.128;15.422;2023-06-14T13:53:18;18.30;99.90
23869;DHT22;12115;47.128;15.422;2023-06-14T13:55:45;18.40;99.90
23869;DHT22;12115;47.128;15.422;2023-06-14T13:58:12;18.50;99.90
23869;DHT22;12115;47.128;15.422;2023-06-14T14:00:41;18.50;99.90
23869;DHT22;12115;47.128;15.422;2023-06-14T14:03:08;18.50;99.90
23869;DHT22;12115;47.128;15.422;2023-06-14T14:05:36;18.60;99.90
23869;DHT22;12115;47.128;15.422;2023-06-14T14:08:03;18.60;99.90
23869;DHT22;12115;47.128;15.422;2023-06-14T14:10:31;18.60;99.90
23869;DHT22;12115;47.128;15.422;2023-06-14T14:12:58;18.70;99.90
23869;DHT22;12115;47.128;15.422;2023-06-14T14:15:26;18.70;99.90
23869;DHT22;12115;47.128;15.422;2023-06-14T14:17:55;18.70;99.90
23869;DHT22;12115;47.128;15.422;2023-06-14T14:20:24;18.70;99.90
23869;DHT22;12115;47.128;15.422;2023-06-14T14:22:52;18.60;99.90
23869;DHT22;12115;47.128;15.422;2023-06-14T14:25:19;18.60;99.90
23869;DHT22;12115;47.128;15.422;2023-06-14T14:27:46;18.60;99.90
23869;DHT22;12115;47.128;15.422;2023-06-14T14:30:14;18.70;99.90
23869;DHT22;12115;47.128;15.422;2023-06-14T14:32:44;18.60;99.90
23869;DHT22;12115;47.128;15.422;2023-06-14T14:35:11;18.70;99.90
23869;DHT22;12115;47.128;15.422;2023-06-14T14:37:39;18.70;99.90
23869;DHT22;12115;47.128;15.422;2023-06-14T14:40:07;18.80;99.90
23869;DHT22;12115;47.128;15.422;2023-06-14T14:42:39;18.90;99.90
23869;DHT22;12115;47.128;15.422;2023-06-14T14:45:11;19.00;99.90
23869;DHT22;12115;47.128;15.422;2023-06-14T14:47:42;19.10;99.90
23869;DHT22;12115;47.128;15.422;2023-06-14T14:50:10;18.90;99.90
23869;DHT22;12115;47.128;15.422;2023-06-14T14:52:37;19.00;99.90
23869;DHT22;12115;47.128;15.422;2023-06-14T14:55:05;19.10;99.90
23869;DHT22;12115;47.128;15.422;2023-06-14T14:57:33;19.20;99.90
23869;DHT22;12115;47.128;15.422;2023-06-14T15:00:01;19.30;99.90
23869;DHT22;12115;47.128;15.422;2023-06-14T15:02:28;19.10;99.90
23869;DHT22;12115;47.128;15.422;2023-06-14T15:04:55;19.00;99.90
23869;DHT22;12115;47.128;15.422;2023-06-14T15:07:30;19.00;99.90
23869;DHT22;12115;47.128;15.422;2023-06-14T15:10:02;19.00;99.90
23869;DHT22;12115;47.128;15.422;2023-06-14T15:12:29;19.00;99.90
23869;DHT22;12115;47.128;15.422;2023-06-14T15:14:57;19.10;99.90
23869;DHT22;12115;47.128;15.422;2023-06-14T15:17:24;19.10;99.90
23869;DHT22;12115;47.128;15.422;2023-06-14T15:19:52;19.00;99.90
23869;DHT22;12115;47.128;15.422;2023-06-14T15:22:20;19.10;99.90
23869;DHT22;12115;47.128;15.422;2023-06-14T15:24:47;19.10;99.90
23869;DHT22;12115;47.128;15.422;2023-06-14T15:27:16;19.20;99.90
23869;DHT22;12115;47.128;15.422;2023-06-14T15:29:44;19.20;99.90
23869;DHT22;12115;47.128;15.422;2023-06-14T15:32:15;19.20;99.90
23869;DHT22;12115;47.128;15.422;2023-06-14T15:34:43;19.20;99.90
23869;DHT22;12115;47.128;15.422;2023-06-14T15:37:10;19.20;99.90
23869;DHT22;12115;47.128;15.422;2023-06-14T15:39:38;19.20;99.90
23869;DHT22;12115;47.128;15.422;2023-06-14T15:42:07;19.20;99.90
23869;DHT22;12115;47.128;15.422;2023-06-14T15:44:35;19.20;99.90
23869;DHT22;12115;47.128;15.422;2023-06-14T15:47:03;19.10;99.90
23869;DHT22;12115;47.128;15.422;2023-06-14T15:49:30;19.20;99.90
23869;DHT22;12115;47.128;15.422;2023-06-14T15:51:58;19.20;99.90
23869;DHT22;12115;47.128;15.422;2023-06-14T15:54:25;19.30;99.90
23869;DHT22;12115;47.128;15.422;2023-06-14T15:56:52;19.30;99.90
23869;DHT22;12115;47.128;15.422;2023-06-14T15:59:20;19.30;99.90
23869;DHT22;12115;47.128;15.422;2023-06-14T16:01:47;19.30;99.90
23869;DHT22;12115;47.128;15.422;2023-06-14T16:04:14;19.30;99.90
23869;DHT22;12115;47.128;15.422;2023-06-14T16:06:42;19.20;99.90
23869;DHT22;12115;47.128;15.422;2023-06-14T16:09:10;19.20;99.90
23869;DHT22;12115;47.128;15.422;2023-06-14T16:11:37;19.30;99.90
23869;DHT22;12115;47.128;15.422;2023-06-14T16:14:04;19.30;99.90
23869;DHT22;12115;47.128;15.422;2023-06-14T16:16:32;19.30;99.90
23869;DHT22;12115;47.128;15.422;2023-06-14T16:18:59;19.30;99.90
23869;DHT22;12115;47.128;15.422;2023-06-14T16:21:27;19.30;99.90
23869;DHT22;12115;47.128;15.422;2023-06-14T16:23:54;19.20;99.90
23869;DHT22;12115;47.128;15.422;2023-06-14T16:26:21;19.20;99.90
23869;DHT22;12115;47.128;15.422;2023-06-14T16:28:49;19.10;99.90
23869;DHT22;12115;47.128;15.422;2023-06-14T16:31:16;19.00;99.90
23869;DHT22;12115;47.128;15.422;2023-06-14T16:33:49;19.00;99.90
23869;DHT22;12115;47.128;15.422;2023-06-14T16:36:22;19.00;99.90
23869;DHT22;12115;47.128;15.422;2023-06-14T16:38:50;19.10;99.90
23869;DHT22;12115;47.128;15.422;2023-06-14T16:41:17;19.10;99.90
23869;DHT22;12115;47.128;15.422;2023-06-14T16:43:45;19.10;99.90
23869;DHT22;12115;47.128;15.422;2023-06-14T16:46:14;19.10;99.90
23869;DHT22;12115;47.128;15.422;2023-06-14T16:48:41;19.10;99.90
23869;DHT22;12115;47.128;15.422;2023-06-14T16:51:09;19.10;99.90
23869;DHT22;12115;47.128;15.422;2023-06-14T16:53:37;19.10;99.90
23869;DHT22;12115;47.128;15.422;2023-06-14T16:56:04;19.10;99.90
23869;DHT22;12115;47.128;15.422;2023-06-14T16:58:33;19.20;99.90
23869;DHT22;12115;47.128;15.422;2023-06-14T17:01:01;19.10;99.90
23869;DHT22;12115;47.128;15.422;2023-06-14T17:03:29;19.10;99.90
23869;DHT22;12115;47.128;15.422;2023-06-14T17:05:59;19.10;99.90
23869;DHT22;12115;47.128;15.422;2023-06-14T17:08:27;19.10;99.90
23869;DHT22;12115;47.128;15.422;2023-06-14T17:10:54;19.10;99.90
23869;DHT22;12115;47.128;15.422;2023-06-14T17:13:24;19.00;99.90
23869;DHT22;12115;47.128;15.422;2023-06-14T17:15:52;19.10;99.90
23869;DHT22;12115;47.128;15.422;2023-06-14T17:18:19;19.10;99.90
23869;DHT22;12115;47.128;15.422;2023-06-14T17:20:48;19.00;99.90
23869;DHT22;12115;47.128;15.422;2023-06-14T17:23:21;19.10;99.90
23869;DHT22;12115;47.128;15.422;2023-06-14T17:25:51;19.10;99.90